Time;durP1;ratioP1;P1;durP2;ratioP2;P2;SDS_P1;SDS_P2;PMS_P1;PMS_P2;Temp;Humidity;BMP_temperature;BMP_pressure;BME280_temperature;BME280_humidity;BME280_pressure;Samples;Min_cycle;Max_cycle;Signal;HPM_P1;HPM_P2
2023/06/27 00:00:13;;;;;;;7.93;2.53;;;;;;;;;;5032982;28;20394;-67
2023/06/27 00:02:40;;;;;;;13.48;2.80;;;;;;;;;;5034108;28;20021;-67
2023/06/27 00:05:05;;;;;;;7.18;2.60;;;;;;;;;;5033893;28;20017;-67
2023/06/27 00:07:31;;;;;;;9.88;3.03;;;;;;;;;;5049366;28;20510;-67
2023/06/27 00:09:56;;;;;;;8.57;2.78;;;;;;;;;;5046464;28;20028;-67
2023/06/27 00:12:22;;;;;;;5.45;2.50;;;;;;;;;;5051486;28;20061;-68
2023/06/27 00:14:47;;;;;;;5.72;2.65;;;;;;;;;;5045346;28;20032;-67
2023/06/27 00:17:14;;;;;;;8.75;2.60;;;;;;;;;;5035540;28;20025;-68
2023/06/27 00:19:39;;;;;;;7.38;2.47;;;;;;;;;;5043899;28;20560;-67
2023/06/27 00:22:09;;;;;;;7.05;2.60;;;;;;;;;;5052789;28;20027;-67
2023/06/27 00:24:38;;;;;;;7.55;2.40;;;;;;;;;;5053153;28;20101;-67
2023/06/27 00:27:04;;;;;;;6.32;2.65;;;;;;;;;;5051782;28;20033;-67
2023/06/27 00:29:30;;;;;;;9.40;2.97;;;;;;;;;;5052051;28;20036;-68
2023/06/27 00:31:55;;;;;;;10.30;3.10;;;;;;;;;;5053136;28;20028;-67
2023/06/27 00:34:21;;;;;;;11.57;2.58;;;;;;;;;;5052081;28;20053;-67
2023/06/27 00:36:46;;;;;;;12.30;3.10;;;;;;;;;;5053029;28;20059;-67
2023/06/27 00:39:11;;;;;;;8.32;2.72;;;;;;;;;;5053318;28;20024;-67
2023/06/27 00:41:37;;;;;;;5.35;2.13;;;;;;;;;;5053618;28;20021;-67
2023/06/27 00:44:07;;;;;;;7.90;2.60;;;;;;;;;;5053042;28;20037;-67
2023/06/27 00:46:35;;;;;;;9.73;2.30;;;;;;;;;;5049141;28;20064;-67
2023/06/27 00:49:00;;;;;;;8.48;3.60;;;;;;;;;;5051051;28;20375;-68
2023/06/27 00:51:26;;;;;;;7.47;2.53;;;;;;;;;;5052672;28;20074;-67
2023/06/27 00:53:51;;;;;;;5.65;2.63;;;;;;;;;;5042731;28;20025;-67
2023/06/27 00:56:16;;;;;;;8.77;2.65;;;;;;;;;;5031716;28;20479;-67
2023/06/27 00:58:42;;;;;;;6.93;2.58;;;;;;;;;;5037484;28;20398;-67
2023/06/27 01:01:07;;;;;;;10.50;2.78;;;;;;;;;;5048706;28;20102;-67
2023/06/27 01:03:33;;;;;;;7.90;2.40;;;;;;;;;;5052352;28;20025;-67
2023/06/27 01:06:02;;;;;;;10.13;2.85;;;;;;;;;;5052450;28;20021;-67
2023/06/27 01:08:46;;;;;;;7.65;2.65;;;;;;;;;;5051487;28;20031;-67
2023/06/27 01:11:15;;;;;;;7.60;2.80;;;;;;;;;;5050943;28;20021;-67
2023/06/27 01:13:50;;;;;;;5.70;2.58;;;;;;;;;;5048625;28;20029;-67
2023/06/27 01:16:19;;;;;;;5.85;2.33;;;;;;;;;;5052187;28;20024;-67
2023/06/27 01:18:44;;;;;;;12.35;2.80;;;;;;;;;;5051144;28;20017;-67
2023/06/27 01:21:10;;;;;;;11.80;2.38;;;;;;;;;;5050490;28;20021;-67
2023/06/27 01:23:54;;;;;;;6.70;2.53;;;;;;;;;;5051518;28;20027;-67
2023/06/27 01:26:19;;;;;;;7.80;2.30;;;;;;;;;;5051773;28;20021;-68
2023/06/27 01:28:45;;;;;;;4.35;2.30;;;;;;;;;;5047774;28;20032;-68
2023/06/27 01:31:27;;;;;;;13.98;2.67;;;;;;;;;;5032256;28;20100;-67
2023/06/27 01:34:06;;;;;;;6.35;2.20;;;;;;;;;;5049654;28;20107;-67
2023/06/27 01:36:39;;;;;;;10.43;2.50;;;;;;;;;;5050037;28;20056;-67
2023/06/27 01:39:28;;;;;;;12.55;2.22;;;;;;;;;;5050142;28;20028;-67
2023/06/27 01:41:56;;;;;;;5.80;2.08;;;;;;;;;;5031306;28;20029;-67
2023/06/27 01:44:22;;;;;;;9.98;3.33;;;;;;;;;;5032970;28;20112;-67
2023/06/27 01:46:48;;;;;;;7.45;2.10;;;;;;;;;;5051422;28;20097;-67
2023/06/27 01:49:14;;;;;;;6.00;2.63;;;;;;;;;;5049412;28;20040;-67
2023/06/27 01:51:40;;;;;;;4.72;2.38;;;;;;;;;;5050395;28;20029;-68
2023/06/27 01:54:06;;;;;;;14.32;3.25;;;;;;;;;;5051019;28;20064;-67
2023/06/27 01:56:31;;;;;;;7.40;3.58;;;;;;;;;;5051546;28;20020;-67
2023/06/27 01:58:57;;;;;;;8.13;2.28;;;;;;;;;;5052101;28;20017;-67
2023/06/27 02:01:22;;;;;;;8.93;2.58;;;;;;;;;;5051499;28;20025;-67
2023/06/27 02:03:47;;;;;;;15.38;3.75;;;;;;;;;;5052403;28;20417;-67
2023/06/27 02:06:15;;;;;;;11.50;2.10;;;;;;;;;;5051422;28;20032;-67
2023/06/27 02:08:40;;;;;;;11.98;2.25;;;;;;;;;;5051974;28;20025;-67
2023/06/27 02:11:05;;;;;;;8.20;2.50;;;;;;;;;;5051936;28;20075;-67
2023/06/27 02:13:35;;;;;;;7.57;2.97;;;;;;;;;;5052207;28;20027;-67
2023/06/27 02:16:00;;;;;;;8.02;2.22;;;;;;;;;;5051619;28;20036;-67
2023/06/27 02:18:26;;;;;;;4.82;2.20;;;;;;;;;;5051906;28;20023;-68
2023/06/27 02:20:51;;;;;;;8.57;2.53;;;;;;;;;;5051457;28;20029;-67
2023/06/27 02:23:16;;;;;;;4.18;2.28;;;;;;;;;;5051728;28;20091;-67
2023/06/27 02:25:43;;;;;;;6.25;2.38;;;;;;;;;;5051373;28;20033;-67
2023/06/27 02:28:08;;;;;;;8.90;2.30;;;;;;;;;;5052593;28;20052;-67
2023/06/27 02:30:34;;;;;;;8.73;2.75;;;;;;;;;;5055144;28;20491;-67
2023/06/27 02:32:59;;;;;;;7.85;2.47;;;;;;;;;;5055607;28;20028;-67
2023/06/27 02:35:24;;;;;;;10.82;2.90;;;;;;;;;;5055050;28;20024;-67
2023/06/27 02:37:50;;;;;;;6.78;3.40;;;;;;;;;;5055309;28;20449;-67
2023/06/27 02:40:15;;;;;;;8.40;3.47;;;;;;;;;;5054726;28;20035;-67
2023/06/27 02:42:41;;;;;;;9.45;2.85;;;;;;;;;;5055030;28;20023;-67
2023/06/27 02:45:06;;;;;;;9.13;2.50;;;;;;;;;;5052695;28;20017;-67
2023/06/27 02:47:32;;;;;;;9.05;2.00;;;;;;;;;;5053794;28;20024;-68
2023/06/27 02:49:57;;;;;;;5.30;2.03;;;;;;;;;;5054752;28;20029;-67
2023/06/27 02:52:22;;;;;;;6.57;2.80;;;;;;;;;;5054968;28;20024;-67
2023/06/27 02:54:48;;;;;;;7.53;3.03;;;;;;;;;;5055054;28;20031;-67
2023/06/27 02:57:13;;;;;;;14.90;2.53;;;;;;;;;;5054487;28;20029;-67
2023/06/27 02:59:39;;;;;;;10.50;2.83;;;;;;;;;;5055178;28;20036;-67
2023/06/27 03:02:04;;;;;;;6.20;2.38;;;;;;;;;;5053077;28;20017;-68
2023/06/27 03:04:30;;;;;;;7.85;2.10;;;;;;;;;;5054846;28;20021;-67
2023/06/27 03:06:55;;;;;;;7.30;2.20;;;;;;;;;;5054552;28;20024;-67
2023/06/27 03:09:20;;;;;;;7.38;2.30;;;;;;;;;;5053746;28;20021;-67
2023/06/27 03:11:46;;;;;;;6.32;1.95;;;;;;;;;;5054589;28;20021;-67
2023/06/27 03:14:11;;;;;;;9.00;2.97;;;;;;;;;;5053284;28;20028;-67
2023/06/27 03:16:36;;;;;;;10.98;2.58;;;;;;;;;;5039781;28;20078;-67
2023/06/27 03:19:02;;;;;;;9.85;2.20;;;;;;;;;;5054529;28;20020;-67
2023/06/27 03:21:27;;;;;;;11.00;2.00;;;;;;;;;;5054186;28;20025;-67
2023/06/27 03:23:52;;;;;;;8.95;2.10;;;;;;;;;;5053700;28;20031;-68
2023/06/27 03:26:18;;;;;;;4.03;1.90;;;;;;;;;;5053191;28;20385;-67
2023/06/27 03:28:43;;;;;;;6.88;2.75;;;;;;;;;;5053996;28;20025;-67
2023/06/27 03:31:08;;;;;;;8.52;2.50;;;;;;;;;;5053990;28;20478;-68
2023/06/27 03:33:34;;;;;;;9.02;2.83;;;;;;;;;;5052955;28;20055;-67
2023/06/27 03:35:59;;;;;;;6.82;1.92;;;;;;;;;;5053608;28;20029;-67
2023/06/27 03:38:25;;;;;;;10.55;2.90;;;;;;;;;;5054179;28;20036;-67
2023/06/27 03:40:50;;;;;;;9.65;2.30;;;;;;;;;;5054108;28;20028;-67
2023/06/27 03:43:15;;;;;;;9.65;2.13;;;;;;;;;;5054427;28;20051;-67
2023/06/27 03:45:41;;;;;;;13.95;2.35;;;;;;;;;;5054398;28;20087;-67
2023/06/27 03:48:07;;;;;;;10.70;2.45;;;;;;;;;;5054447;28;20474;-67
2023/06/27 03:50:33;;;;;;;5.45;2.15;;;;;;;;;;5053219;28;20053;-67
2023/06/27 03:53:00;;;;;;;12.45;2.58;;;;;;;;;;5053033;28;20497;-67
2023/06/27 03:55:26;;;;;;;5.60;2.28;;;;;;;;;;5054331;28;20112;-67
2023/06/27 03:57:51;;;;;;;10.20;2.40;;;;;;;;;;5054341;28;20025;-68
2023/06/27 04:00:17;;;;;;;11.52;2.35;;;;;;;;;;5054105;28;20021;-67
2023/06/27 04:02:42;;;;;;;8.80;2.30;;;;;;;;;;5052952;28;20017;-67
2023/06/27 04:05:08;;;;;;;10.98;2.65;;;;;;;;;;5053950;28;20102;-67
2023/06/27 04:07:33;;;;;;;13.15;2.38;;;;;;;;;;5053064;28;20498;-67
2023/06/27 04:09:59;;;;;;;8.02;1.90;;;;;;;;;;5053911;28;20025;-67
2023/06/27 04:12:24;;;;;;;9.25;2.00;;;;;;;;;;5053818;28;20039;-67
2023/06/27 04:14:49;;;;;;;10.15;2.13;;;;;;;;;;5054361;28;20414;-67
2023/06/27 04:17:15;;;;;;;7.93;2.00;;;;;;;;;;5052656;28;20029;-67
2023/06/27 04:19:40;;;;;;;6.85;1.95;;;;;;;;;;5054113;28;20024;-67
2023/06/27 04:22:06;;;;;;;6.78;2.10;;;;;;;;;;5053735;28;20467;-67
2023/06/27 04:24:31;;;;;;;7.05;1.95;;;;;;;;;;5053809;28;20017;-67
2023/06/27 04:26:57;;;;;;;7.20;2.28;;;;;;;;;;5053511;28;20025;-67
2023/06/27 04:29:22;;;;;;;5.80;1.80;;;;;;;;;;5053667;28;20017;-67
2023/06/27 04:31:47;;;;;;;7.40;2.17;;;;;;;;;;5053517;28;20024;-67
2023/06/27 04:34:13;;;;;;;8.43;2.28;;;;;;;;;;5053953;28;20029;-67
2023/06/27 04:36:40;;;;;;;10.15;2.60;;;;;;;;;;5053766;28;20498;-67
2023/06/27 04:39:06;;;;;;;8.27;2.30;;;;;;;;;;5053608;28;20453;-67
2023/06/27 04:41:32;;;;;;;2.97;1.67;;;;;;;;;;5054467;28;20052;-67
2023/06/27 04:43:58;;;;;;;5.35;2.70;;;;;;;;;;5054498;28;20020;-68
2023/06/27 04:46:28;;;;;;;9.95;2.88;;;;;;;;;;5055190;28;20044;-67
2023/06/27 04:48:56;;;;;;;9.60;2.22;;;;;;;;;;5053299;28;20104;-67
2023/06/27 04:51:22;;;;;;;8.82;3.05;;;;;;;;;;5052372;28;20453;-67
2023/06/27 04:53:47;;;;;;;7.22;2.33;;;;;;;;;;5053159;28;20025;-67
2023/06/27 04:56:13;;;;;;;6.88;2.13;;;;;;;;;;5053628;28;20029;-68
2023/06/27 04:58:38;;;;;;;7.35;2.30;;;;;;;;;;5053153;28;20021;-67
2023/06/27 05:01:03;;;;;;;8.60;3.05;;;;;;;;;;5053053;28;20025;-67
2023/06/27 05:03:29;;;;;;;9.43;2.80;;;;;;;;;;5053052;28;20021;-67
2023/06/27 05:05:54;;;;;;;8.65;2.22;;;;;;;;;;5053015;28;20021;-67
2023/06/27 05:08:19;;;;;;;4.32;1.88;;;;;;;;;;5053155;28;20017;-67
2023/06/27 05:10:45;;;;;;;4.53;1.85;;;;;;;;;;5053409;28;20458;-67
2023/06/27 05:13:10;;;;;;;8.23;2.05;;;;;;;;;;5053059;28;20025;-67
2023/06/27 05:15:36;;;;;;;11.50;2.08;;;;;;;;;;5053196;28;20029;-67
2023/06/27 05:18:07;;;;;;;5.90;1.65;;;;;;;;;;5053133;28;20021;-68
2023/06/27 05:20:32;;;;;;;6.40;2.20;;;;;;;;;;5052902;28;20035;-67
2023/06/27 05:22:57;;;;;;;6.32;2.08;;;;;;;;;;5053073;28;20437;-67
2023/06/27 05:25:23;;;;;;;8.10;2.50;;;;;;;;;;5052898;28;20386;-68
2023/06/27 05:27:48;;;;;;;6.20;1.80;;;;;;;;;;5052656;28;20078;-68
2023/06/27 05:30:13;;;;;;;6.65;1.60;;;;;;;;;;5052795;28;20029;-67
2023/06/27 05:32:39;;;;;;;4.75;2.08;;;;;;;;;;5051467;28;20474;-67
2023/06/27 05:35:04;;;;;;;6.97;2.28;;;;;;;;;;5052780;28;20025;-67
2023/06/27 05:37:30;;;;;;;4.03;1.50;;;;;;;;;;5052613;28;20425;-67
2023/06/27 05:39:55;;;;;;;6.00;1.73;;;;;;;;;;5052673;28;20021;-67
2023/06/27 05:42:20;;;;;;;5.53;2.15;;;;;;;;;;5052773;28;20393;-68
2023/06/27 05:44:46;;;;;;;5.00;1.80;;;;;;;;;;5052729;28;20027;-67
2023/06/27 05:47:12;;;;;;;6.07;1.73;;;;;;;;;;5052828;28;20078;-67
2023/06/27 05:49:37;;;;;;;4.70;1.75;;;;;;;;;;5052493;28;20471;-67
2023/06/27 05:52:02;;;;;;;7.15;2.30;;;;;;;;;;5052560;28;20389;-67
2023/06/27 05:54:28;;;;;;;7.13;1.63;;;;;;;;;;5052816;28;20028;-68
2023/06/27 05:56:53;;;;;;;5.68;1.70;;;;;;;;;;5052590;28;20478;-67
2023/06/27 05:59:19;;;;;;;6.35;1.70;;;;;;;;;;5052871;28;20527;-67
2023/06/27 06:01:44;;;;;;;9.57;1.85;;;;;;;;;;5051291;28;20017;-68
2023/06/27 06:04:10;;;;;;;9.23;2.38;;;;;;;;;;5055995;28;20501;-68
2023/06/27 06:06:38;;;;;;;5.72;1.80;;;;;;;;;;5056222;28;20032;-67
2023/06/27 06:09:06;;;;;;;5.05;2.25;;;;;;;;;;5056664;28;20032;-68
2023/06/27 06:11:34;;;;;;;3.72;1.40;;;;;;;;;;5056046;28;20138;-68
2023/06/27 06:14:01;;;;;;;10.27;1.45;;;;;;;;;;5056120;28;20082;-68
2023/06/27 06:16:27;;;;;;;6.10;1.90;;;;;;;;;;5056022;28;20490;-68
2023/06/27 06:18:53;;;;;;;9.93;1.80;;;;;;;;;;5056147;28;20025;-68
2023/06/27 06:21:18;;;;;;;4.72;2.00;;;;;;;;;;5055983;28;20021;-68
2023/06/27 06:23:44;;;;;;;4.32;1.73;;;;;;;;;;5056013;28;20074;-68
2023/06/27 06:26:09;;;;;;;4.95;1.80;;;;;;;;;;5055829;28;20479;-68
2023/06/27 06:28:34;;;;;;;7.80;2.15;;;;;;;;;;5055925;28;20028;-68
2023/06/27 06:31:00;;;;;;;7.97;1.60;;;;;;;;;;5055620;28;20082;-68
2023/06/27 06:33:26;;;;;;;5.38;1.83;;;;;;;;;;5056075;28;20031;-68
2023/06/27 06:35:51;;;;;;;7.22;2.45;;;;;;;;;;5056326;28;20398;-68
2023/06/27 06:38:16;;;;;;;3.97;1.45;;;;;;;;;;5055523;28;20027;-68
2023/06/27 06:40:42;;;;;;;7.93;1.70;;;;;;;;;;5048321;28;20026;-68
2023/06/27 06:43:08;;;;;;;5.72;1.50;;;;;;;;;;5045737;28;20483;-68
2023/06/27 06:45:33;;;;;;;8.88;1.88;;;;;;;;;;5054156;28;20021;-68
2023/06/27 06:47:59;;;;;;;4.55;1.55;;;;;;;;;;5055309;28;20017;-68
2023/06/27 06:50:24;;;;;;;9.55;2.28;;;;;;;;;;5050222;28;20497;-68
2023/06/27 06:52:50;;;;;;;5.90;1.50;;;;;;;;;;5047246;28;20064;-68
2023/06/27 06:55:15;;;;;;;6.15;1.58;;;;;;;;;;5050073;28;20029;-68
2023/06/27 06:57:40;;;;;;;8.50;1.83;;;;;;;;;;5046911;28;20029;-67
2023/06/27 07:00:06;;;;;;;3.25;1.42;;;;;;;;;;5055097;28;20021;-68
2023/06/27 07:02:32;;;;;;;4.45;1.67;;;;;;;;;;5054797;28;20052;-68
2023/06/27 07:04:57;;;;;;;6.72;1.92;;;;;;;;;;5048617;28;20021;-68
2023/06/27 07:07:23;;;;;;;7.97;2.00;;;;;;;;;;5035292;28;20398;-68
2023/06/27 07:09:48;;;;;;;4.15;1.50;;;;;;;;;;5035231;28;20025;-68
2023/06/27 07:12:14;;;;;;;4.93;1.60;;;;;;;;;;5055243;28;20036;-69
2023/06/27 07:14:39;;;;;;;4.63;1.55;;;;;;;;;;5052517;28;20086;-68
2023/06/27 07:17:05;;;;;;;9.80;1.80;;;;;;;;;;5053921;28;20028;-68
2023/06/27 07:19:31;;;;;;;6.07;1.60;;;;;;;;;;5052315;28;20479;-68
2023/06/27 07:21:56;;;;;;;6.03;1.80;;;;;;;;;;5034706;28;20036;-68
2023/06/27 07:24:21;;;;;;;6.57;1.95;;;;;;;;;;5034458;28;20059;-68
2023/06/27 07:26:47;;;;;;;5.00;1.40;;;;;;;;;;5052503;28;20021;-68
2023/06/27 07:29:12;;;;;;;4.00;1.50;;;;;;;;;;5054504;28;20024;-68
2023/06/27 07:31:37;;;;;;;7.43;2.17;;;;;;;;;;5054731;28;20025;-69
2023/06/27 07:34:03;;;;;;;5.80;1.80;;;;;;;;;;5052980;28;20459;-69
2023/06/27 07:36:28;;;;;;;5.05;1.40;;;;;;;;;;5054145;28;20081;-67
2023/06/27 07:38:58;;;;;;;5.03;1.30;;;;;;;;;;5056456;28;20501;-66
2023/06/27 07:41:23;;;;;;;5.95;1.92;;;;;;;;;;5054918;28;20371;-67
2023/06/27 07:43:48;;;;;;;6.22;1.25;;;;;;;;;;5054541;28;20031;-66
2023/06/27 07:46:14;;;;;;;4.32;1.65;;;;;;;;;;5054037;28;20102;-66
2023/06/27 07:48:39;;;;;;;6.18;1.40;;;;;;;;;;5054021;28;20032;-66
2023/06/27 07:51:04;;;;;;;5.10;1.20;;;;;;;;;;5054092;28;20028;-66
2023/06/27 07:53:30;;;;;;;6.18;1.65;;;;;;;;;;5054688;28;20025;-66
2023/06/27 07:55:55;;;;;;;2.35;1.30;;;;;;;;;;5054226;28;20024;-66
2023/06/27 07:58:20;;;;;;;4.40;1.67;;;;;;;;;;5053866;28;20031;-65
2023/06/27 08:00:46;;;;;;;6.07;1.77;;;;;;;;;;5054638;28;20027;-65
2023/06/27 08:03:11;;;;;;;4.97;1.45;;;;;;;;;;5054417;28;20017;-66
2023/06/27 08:05:39;;;;;;;5.60;1.48;;;;;;;;;;5054900;28;20017;-66
2023/06/27 08:08:04;;;;;;;6.25;1.58;;;;;;;;;;5054811;28;20040;-66
2023/06/27 08:10:29;;;;;;;4.82;1.48;;;;;;;;;;5054818;28;20029;-67
2023/06/27 08:12:55;;;;;;;4.55;1.35;;;;;;;;;;5054119;28;20021;-67
2023/06/27 08:15:21;;;;;;;4.50;1.73;;;;;;;;;;5039090;28;20033;-67
2023/06/27 08:17:47;;;;;;;7.20;1.90;;;;;;;;;;5035251;28;20398;-67
2023/06/27 08:20:12;;;;;;;7.60;1.63;;;;;;;;;;5036156;28;20029;-67
2023/06/27 08:22:37;;;;;;;3.38;1.30;;;;;;;;;;5034973;28;20018;-67
2023/06/27 08:25:03;;;;;;;6.15;1.80;;;;;;;;;;5035801;28;20021;-67
2023/06/27 08:27:28;;;;;;;5.05;1.42;;;;;;;;;;5017895;28;20064;-67
2023/06/27 08:29:54;;;;;;;3.83;1.48;;;;;;;;;;5035036;28;20029;-67
2023/06/27 08:32:19;;;;;;;5.80;1.63;;;;;;;;;;5035460;28;20030;-67
2023/06/27 08:34:44;;;;;;;6.97;1.77;;;;;;;;;;5050063;28;20025;-67
2023/06/27 08:37:10;;;;;;;6.65;1.50;;;;;;;;;;5035455;28;20033;-67
2023/06/27 08:39:36;;;;;;;9.70;2.45;;;;;;;;;;5034315;28;20029;-67
2023/06/27 08:42:02;;;;;;;6.38;1.70;;;;;;;;;;5053000;28;20070;-67
2023/06/27 08:44:27;;;;;;;6.47;1.83;;;;;;;;;;5055682;28;20107;-67
2023/06/27 08:46:55;;;;;;;3.22;1.58;;;;;;;;;;5057420;28;20024;-67
2023/06/27 08:49:22;;;;;;;8.05;1.70;;;;;;;;;;5055244;28;20514;-67
2023/06/27 08:51:50;;;;;;;6.22;1.45;;;;;;;;;;5037372;28;20030;-66
2023/06/27 08:54:35;;;;;;;6.75;1.80;;;;;;;;;;5033014;28;20033;-67
2023/06/27 08:57:02;;;;;;;7.60;1.88;;;;;;;;;;5049552;28;20026;-66
2023/06/27 08:59:31;;;;;;;3.95;1.77;;;;;;;;;;5034189;28;20022;-67
2023/06/27 09:01:58;;;;;;;7.07;2.13;;;;;;;;;;5049554;28;20025;-66
2023/06/27 09:04:23;;;;;;;6.05;1.77;;;;;;;;;;5053556;28;20032;-66
2023/06/27 09:06:49;;;;;;;4.55;1.70;;;;;;;;;;5042473;28;20026;-66
2023/06/27 09:09:15;;;;;;;7.18;1.90;;;;;;;;;;5034043;28;20033;-66
2023/06/27 09:11:42;;;;;;;4.60;1.50;;;;;;;;;;5034229;28;20052;-66
2023/06/27 09:14:07;;;;;;;4.63;1.52;;;;;;;;;;5033345;28;20047;-66
2023/06/27 09:16:33;;;;;;;4.60;2.33;;;;;;;;;;5034423;28;20371;-66
2023/06/27 09:18:58;;;;;;;7.50;1.80;;;;;;;;;;5033022;28;20025;-66
2023/06/27 09:21:26;;;;;;;7.30;2.33;;;;;;;;;;5034325;28;20052;-66
2023/06/27 09:23:53;;;;;;;3.10;1.55;;;;;;;;;;5034183;28;20037;-66
2023/06/27 09:26:18;;;;;;;4.32;1.92;;;;;;;;;;5034102;28;20108;-67
2023/06/27 09:28:47;;;;;;;5.75;1.40;;;;;;;;;;5033584;28;20035;-67
2023/06/27 09:31:13;;;;;;;4.72;1.33;;;;;;;;;;5033972;28;20030;-66
2023/06/27 09:33:39;;;;;;;4.72;1.45;;;;;;;;;;5034053;28;20071;-66
2023/06/27 09:36:05;;;;;;;5.03;1.40;;;;;;;;;;5034376;28;20574;-67
2023/06/27 09:38:31;;;;;;;4.82;1.40;;;;;;;;;;5035606;28;20065;-66
2023/06/27 09:41:06;;;;;;;2.05;1.20;;;;;;;;;;5038350;28;20025;-66
2023/06/27 09:43:35;;;;;;;4.47;1.52;;;;;;;;;;5038173;28;20025;-67
2023/06/27 09:46:03;;;;;;;10.60;5.55;;;;;;;;;;5038534;28;20052;-67
2023/06/27 09:48:29;;;;;;;5.53;3.17;;;;;;;;;;5038145;28;20038;-67
2023/06/27 09:51:01;;;;;;;5.50;2.20;;;;;;;;;;5038698;28;20483;-67
2023/06/27 09:53:30;;;;;;;4.32;1.35;;;;;;;;;;5038128;28;20027;-66
2023/06/27 09:55:57;;;;;;;6.63;1.45;;;;;;;;;;5038020;28;20033;-66
2023/06/27 09:58:29;;;;;;;4.40;1.45;;;;;;;;;;5037903;28;20056;-66
2023/06/27 10:01:03;;;;;;;8.60;1.52;;;;;;;;;;5038075;28;20108;-67
2023/06/27 10:03:29;;;;;;;2.25;1.80;;;;;;;;;;5037924;28;20479;-66
2023/06/27 10:05:54;;;;;;;2.67;1.40;;;;;;;;;;5036713;28;20043;-66
2023/06/27 10:08:19;;;;;;;4.95;1.60;;;;;;;;;;5037854;28;20029;-67
2023/06/27 10:10:45;;;;;;;4.47;1.40;;;;;;;;;;5036970;28;20455;-66
2023/06/27 10:13:10;;;;;;;2.58;1.30;;;;;;;;;;5037321;28;20029;-67
2023/06/27 10:15:36;;;;;;;4.50;1.40;;;;;;;;;;5037793;28;20021;-66
2023/06/27 10:18:02;;;;;;;5.78;1.40;;;;;;;;;;5036165;28;20081;-67
2023/06/27 10:20:27;;;;;;;9.13;1.60;;;;;;;;;;5037226;28;20045;-67
2023/06/27 10:22:53;;;;;;;3.30;1.30;;;;;;;;;;5037681;28;20021;-66
2023/06/27 10:25:19;;;;;;;5.13;1.30;;;;;;;;;;5036383;28;20104;-67
2023/06/27 10:27:44;;;;;;;5.43;1.42;;;;;;;;;;5036333;28;20079;-67
2023/06/27 10:30:19;;;;;;;5.90;2.03;;;;;;;;;;5036416;28;20395;-67
2023/06/27 10:32:44;;;;;;;3.15;1.25;;;;;;;;;;5036499;28;20151;-67
2023/06/27 10:35:26;;;;;;;4.00;1.48;;;;;;;;;;5035454;28;20468;-67
2023/06/27 10:38:10;;;;;;;6.00;1.23;;;;;;;;;;5036523;28;20053;-67
2023/06/27 10:41:02;;;;;;;2.67;1.88;;;;;;;;;;5036549;28;20037;-67
2023/06/27 10:43:46;;;;;;;10.95;1.60;;;;;;;;;;5036436;28;20025;-67
2023/06/27 10:46:19;;;;;;;3.95;1.52;;;;;;;;;;5036658;28;20049;-67
2023/06/27 10:48:49;;;;;;;7.55;1.98;;;;;;;;;;5035684;28;20029;-67
2023/06/27 10:51:16;;;;;;;4.72;1.38;;;;;;;;;;5036546;28;20069;-67
2023/06/27 10:53:43;;;;;;;5.80;1.65;;;;;;;;;;5035304;28;20025;-67
2023/06/27 10:56:27;;;;;;;4.22;2.00;;;;;;;;;;5036345;28;20018;-67
2023/06/27 10:58:58;;;;;;;4.32;1.58;;;;;;;;;;5036632;28;20026;-66
2023/06/27 11:01:24;;;;;;;5.60;1.63;;;;;;;;;;5036333;28;20502;-67
2023/06/27 11:03:56;;;;;;;5.05;1.42;;;;;;;;;;5035312;28;20025;-67
2023/06/27 11:06:27;;;;;;;4.18;1.92;;;;;;;;;;5036354;28;20390;-66
2023/06/27 11:08:56;;;;;;;3.05;1.52;;;;;;;;;;5036112;28;20033;-67
2023/06/27 11:11:27;;;;;;;3.70;1.95;;;;;;;;;;5049496;28;20122;-66
2023/06/27 11:14:03;;;;;;;3.75;1.60;;;;;;;;;;5046037;28;20017;-67
2023/06/27 11:16:29;;;;;;;4.22;1.60;;;;;;;;;;5056077;28;20029;-66
2023/06/27 11:18:54;;;;;;;4.40;1.90;;;;;;;;;;5044669;28;20422;-67
2023/06/27 11:21:20;;;;;;;9.55;2.00;;;;;;;;;;5056556;28;20021;-67
2023/06/27 11:23:46;;;;;;;4.22;1.50;;;;;;;;;;5054850;28;20518;-67
2023/06/27 11:26:11;;;;;;;4.47;1.85;;;;;;;;;;5056143;28;20046;-66
2023/06/27 11:28:37;;;;;;;5.57;2.00;;;;;;;;;;5056611;28;20386;-67
2023/06/27 11:31:03;;;;;;;2.90;1.30;;;;;;;;;;5056236;28;20023;-67
2023/06/27 11:33:28;;;;;;;2.65;1.40;;;;;;;;;;5056366;28;20029;-66
2023/06/27 11:36:00;;;;;;;3.13;1.33;;;;;;;;;;5056592;28;20032;-67
2023/06/27 11:38:26;;;;;;;3.78;1.38;;;;;;;;;;5056533;28;20036;-67
2023/06/27 11:40:52;;;;;;;4.00;1.30;;;;;;;;;;5056430;28;20028;-66
2023/06/27 11:43:18;;;;;;;3.42;1.45;;;;;;;;;;5056158;28;20017;-67
2023/06/27 11:45:57;;;;;;;1.52;1.00;;;;;;;;;;5056441;28;20150;-67
2023/06/27 11:48:22;;;;;;;3.45;1.20;;;;;;;;;;5056793;28;20485;-67
2023/06/27 11:50:55;;;;;;;4.63;1.40;;;;;;;;;;5057017;28;20025;-66
2023/06/27 11:53:23;;;;;;;3.15;1.30;;;;;;;;;;5055987;28;20100;-66
2023/06/27 11:55:49;;;;;;;6.18;1.20;;;;;;;;;;5056712;28;20020;-66
2023/06/27 11:58:15;;;;;;;5.20;1.60;;;;;;;;;;5055048;28;20031;-67
2023/06/27 12:00:41;;;;;;;4.10;1.40;;;;;;;;;;5055846;28;20021;-67
2023/06/27 12:03:07;;;;;;;3.25;1.17;;;;;;;;;;5056555;28;20027;-67
2023/06/27 12:05:32;;;;;;;4.45;1.23;;;;;;;;;;5056092;28;20501;-67
2023/06/27 12:08:03;;;;;;;3.47;1.30;;;;;;;;;;5054707;28;20025;-67
2023/06/27 12:10:30;;;;;;;4.20;1.48;;;;;;;;;;5056132;28;20099;-67
2023/06/27 12:12:55;;;;;;;3.88;1.63;;;;;;;;;;5054777;28;20375;-67
2023/06/27 12:15:21;;;;;;;5.70;1.40;;;;;;;;;;5055346;28;20035;-67
2023/06/27 12:18:00;;;;;;;3.17;1.67;;;;;;;;;;5056600;28;20032;-67
2023/06/27 12:20:26;;;;;;;3.25;1.77;;;;;;;;;;5055982;28;20110;-67
2023/06/27 12:22:52;;;;;;;3.40;1.42;;;;;;;;;;5056134;28;20013;-67
2023/06/27 12:25:17;;;;;;;5.60;1.55;;;;;;;;;;5056152;28;20601;-67
2023/06/27 12:27:43;;;;;;;4.53;1.35;;;;;;;;;;5055918;28;20036;-67
2023/06/27 12:30:10;;;;;;;2.35;1.20;;;;;;;;;;5056327;28;20027;-67
2023/06/27 12:32:36;;;;;;;4.35;1.70;;;;;;;;;;5056170;28;20099;-67
2023/06/27 12:35:01;;;;;;;5.82;1.80;;;;;;;;;;5056091;28;20586;-67
2023/06/27 12:37:28;;;;;;;5.70;1.27;;;;;;;;;;5056070;28;20490;-67
2023/06/27 12:39:54;;;;;;;3.80;1.20;;;;;;;;;;5056251;28;20486;-67
2023/06/27 12:42:19;;;;;;;4.65;1.13;;;;;;;;;;5056374;28;20027;-67
2023/06/27 12:44:44;;;;;;;2.97;1.38;;;;;;;;;;5057158;28;20082;-67
2023/06/27 12:47:10;;;;;;;4.80;1.35;;;;;;;;;;5055910;28;20027;-67
2023/06/27 12:49:35;;;;;;;4.13;1.38;;;;;;;;;;5054866;28;20021;-67
2023/06/27 12:52:01;;;;;;;4.40;1.83;;;;;;;;;;5055061;28;20471;-67
2023/06/27 12:54:26;;;;;;;2.28;0.90;;;;;;;;;;5053446;28;20025;-67
2023/06/27 12:56:51;;;;;;;6.10;1.35;;;;;;;;;;5054699;28;20025;-66
2023/06/27 12:59:26;;;;;;;6.07;1.60;;;;;;;;;;5055213;28;20024;-67
2023/06/27 13:01:58;;;;;;;3.42;1.30;;;;;;;;;;5055506;28;20033;-67
2023/06/27 13:04:25;;;;;;;2.60;1.67;;;;;;;;;;5055887;28;20100;-68
2023/06/27 13:06:51;;;;;;;5.30;1.55;;;;;;;;;;5055754;28;20036;-67
2023/06/27 13:09:16;;;;;;;3.67;1.70;;;;;;;;;;5055833;28;20393;-67
2023/06/27 13:11:42;;;;;;;5.38;1.60;;;;;;;;;;5054674;28;20470;-67
2023/06/27 13:14:07;;;;;;;8.85;1.65;;;;;;;;;;5054174;28;20029;-67
2023/06/27 13:16:33;;;;;;;3.67;1.70;;;;;;;;;;5053976;28;20024;-67
2023/06/27 13:18:58;;;;;;;6.78;1.50;;;;;;;;;;5055322;28;20031;-67
2023/06/27 13:21:23;;;;;;;3.35;1.23;;;;;;;;;;5055091;28;20039;-67
2023/06/27 13:23:49;;;;;;;4.25;1.73;;;;;;;;;;5055205;28;20424;-67
2023/06/27 13:26:14;;;;;;;4.15;1.52;;;;;;;;;;5055190;28;20039;-67
2023/06/27 13:28:40;;;;;;;4.30;1.40;;;;;;;;;;5055340;28;20024;-67
2023/06/27 13:31:05;;;;;;;6.45;1.67;;;;;;;;;;5054957;28;20390;-67
2023/06/27 13:33:30;;;;;;;4.93;1.50;;;;;;;;;;5055001;28;20017;-67
2023/06/27 13:35:56;;;;;;;4.97;1.30;;;;;;;;;;5054737;28;20021;-67
2023/06/27 13:38:22;;;;;;;6.63;1.90;;;;;;;;;;5074256;23;20414;-74
2023/06/27 13:40:47;;;;;;;4.78;1.40;;;;;;;;;;5068447;28;20040;-78
2023/06/27 13:43:12;;;;;;;1.70;1.23;;;;;;;;;;5051420;28;20021;-74
2023/06/27 13:45:38;;;;;;;4.03;1.88;;;;;;;;;;5052656;28;20463;-74
2023/06/27 13:48:04;;;;;;;4.03;1.52;;;;;;;;;;5051456;28;20025;-75
2023/06/27 13:50:29;;;;;;;6.68;1.60;;;;;;;;;;5051401;28;20020;-74
2023/06/27 13:52:55;;;;;;;7.25;1.48;;;;;;;;;;5052527;28;20492;-74
2023/06/27 13:55:20;;;;;;;3.90;1.60;;;;;;;;;;5051474;28;20021;-74
2023/06/27 13:57:46;;;;;;;4.45;2.17;;;;;;;;;;5052484;28;20501;-75
2023/06/27 14:00:11;;;;;;;5.28;1.35;;;;;;;;;;5052572;28;20146;-74
2023/06/27 14:02:37;;;;;;;4.45;1.63;;;;;;;;;;5034562;28;20032;-74
2023/06/27 14:05:03;;;;;;;4.78;1.80;;;;;;;;;;5052425;28;20364;-74
2023/06/27 14:07:28;;;;;;;4.18;1.90;;;;;;;;;;5052645;28;20070;-74
2023/06/27 14:09:54;;;;;;;5.25;1.80;;;;;;;;;;5051231;28;20029;-74
2023/06/27 14:12:19;;;;;;;4.00;1.42;;;;;;;;;;5052364;28;20475;-74
2023/06/27 14:14:44;;;;;;;2.50;1.35;;;;;;;;;;5051174;28;20063;-74
2023/06/27 14:17:10;;;;;;;4.13;1.40;;;;;;;;;;5051086;28;20025;-75
2023/06/27 14:19:35;;;;;;;8.20;2.35;;;;;;;;;;5052425;28;20096;-74
2023/06/27 14:22:01;;;;;;;5.15;1.60;;;;;;;;;;5052289;28;20021;-74
2023/06/27 14:24:26;;;;;;;3.03;1.40;;;;;;;;;;5054608;28;20021;-74
2023/06/27 14:26:51;;;;;;;2.97;1.38;;;;;;;;;;5049289;28;20474;-74
2023/06/27 14:29:17;;;;;;;5.03;1.70;;;;;;;;;;5053766;28;20036;-74
2023/06/27 14:31:42;;;;;;;5.78;1.63;;;;;;;;;;5055540;28;20021;-74
2023/06/27 14:34:08;;;;;;;6.60;1.80;;;;;;;;;;5051116;28;20039;-74
2023/06/27 14:36:33;;;;;;;4.63;1.70;;;;;;;;;;5034643;28;20025;-74